sensor_id;sensor_type;location;lat;lon;timestamp;temperature;humidity
21104;DHT22;10710;53.398;-1.514;2023-09-12T00:00:40;17.80;99.90
21104;DHT22;10710;53.398;-1.514;2023-09-12T00:03:24;17.70;99.90
21104;DHT22;10710;53.398;-1.514;2023-09-12T00:06:08;17.70;99.90
21104;DHT22;10710;53.398;-1.514;2023-09-12T00:08:52;17.60;99.90
21104;DHT22;10710;53.398;-1.514;2023-09-12T00:11:36;17.60;99.90
21104;DHT22;10710;53.398;-1.514;2023-09-12T00:14:20;17.60;99.90
21104;DHT22;10710;53.398;-1.514;2023-09-12T00:17:05;17.60;99.90
21104;DHT22;10710;53.398;-1.514;2023-09-12T00:19:49;17.60;99.90
21104;DHT22;10710;53.398;-1.514;2023-09-12T00:22:33;17.60;99.90
21104;DHT22;10710;53.398;-1.514;2023-09-12T00:25:17;17.60;99.90
21104;DHT22;10710;53.398;-1.514;2023-09-12T00:28:01;17.60;99.90
21104;DHT22;10710;53.398;-1.514;2023-09-12T00:30:46;17.60;99.90
21104;DHT22;10710;53.398;-1.514;2023-09-12T00:33:30;17.60;99.90
21104;DHT22;10710;53.398;-1.514;2023-09-12T00:36:15;17.60;99.90
21104;DHT22;10710;53.398;-1.514;2023-09-12T00:38:59;17.60;99.90
21104;DHT22;10710;53.398;-1.514;2023-09-12T00:41:43;17.60;99.90
21104;DHT22;10710;53.398;-1.514;2023-09-12T00:44:27;17.60;99.90
21104;DHT22;10710;53.398;-1.514;2023-09-12T00:47:12;17.50;99.90
21104;DHT22;10710;53.398;-1.514;2023-09-12T00:49:58;17.50;99.90
21104;DHT22;10710;53.398;-1.514;2023-09-12T00:52:43;17.50;99.90
21104;DHT22;10710;53.398;-1.514;2023-09-12T00:55:29;17.40;99.90
21104;DHT22;10710;53.398;-1.514;2023-09-12T00:58:15;17.50;99.90
21104;DHT22;10710;53.398;-1.514;2023-09-12T01:01:00;17.40;99.90
21104;DHT22;10710;53.398;-1.514;2023-09-12T01:03:44;17.50;99.90
21104;DHT22;10710;53.398;-1.514;2023-09-12T01:06:29;17.40;99.90
21104;DHT22;10710;53.398;-1.514;2023-09-12T01:09:15;17.40;99.90
21104;DHT22;10710;53.398;-1.514;2023-09-12T01:12:00;17.40;99.90
21104;DHT22;10710;53.398;-1.514;2023-09-12T01:14:46;17.30;99.90
21104;DHT22;10710;53.398;-1.514;2023-09-12T01:17:30;17.30;99.90
21104;DHT22;10710;53.398;-1.514;2023-09-12T01:20:21;17.30;99.90
21104;DHT22;10710;53.398;-1.514;2023-09-12T01:23:26;17.30;99.90
21104;DHT22;10710;53.398;-1.514;2023-09-12T01:26:36;17.30;99.90
21104;DHT22;10710;53.398;-1.514;2023-09-12T01:29:26;17.40;99.90
21104;DHT22;10710;53.398;-1.514;2023-09-12T01:32:10;17.30;99.90
21104;DHT22;10710;53.398;-1.514;2023-09-12T01:34:55;17.30;99.90
21104;DHT22;10710;53.398;-1.514;2023-09-12T01:37:39;17.20;99.90
21104;DHT22;10710;53.398;-1.514;2023-09-12T01:40:44;17.30;99.90
21104;DHT22;10710;53.398;-1.514;2023-09-12T01:43:31;17.30;99.90
21104;DHT22;10710;53.398;-1.514;2023-09-12T01:46:18;17.20;99.90
21104;DHT22;10710;53.398;-1.514;2023-09-12T01:49:04;17.20;99.90
21104;DHT22;10710;53.398;-1.514;2023-09-12T01:51:50;17.20;99.90
21104;DHT22;10710;53.398;-1.514;2023-09-12T01:54:35;17.20;99.90
21104;DHT22;10710;53.398;-1.514;2023-09-12T01:57:20;17.20;99.90
21104;DHT22;10710;53.398;-1.514;2023-09-12T02:00:05;17.20;99.90
21104;DHT22;10710;53.398;-1.514;2023-09-12T02:02:50;17.20;99.90
21104;DHT22;10710;53.398;-1.514;2023-09-12T02:05:35;17.20;99.90
21104;DHT22;10710;53.398;-1.514;2023-09-12T02:08:21;17.10;99.90
21104;DHT22;10710;53.398;-1.514;2023-09-12T02:11:05;17.10;99.90
21104;DHT22;10710;53.398;-1.514;2023-09-12T02:13:50;17.10;99.90
21104;DHT22;10710;53.398;-1.514;2023-09-12T02:16:36;17.10;99.90
21104;DHT22;10710;53.398;-1.514;2023-09-12T02:19:21;17.20;99.90
21104;DHT22;10710;53.398;-1.514;2023-09-12T02:22:06;17.20;99.90
21104;DHT22;10710;53.398;-1.514;2023-09-12T02:24:51;17.20;99.90
21104;DHT22;10710;53.398;-1.514;2023-09-12T02:27:35;17.20;99.90
21104;DHT22;10710;53.398;-1.514;2023-09-12T02:30:19;17.00;99.90
21104;DHT22;10710;53.398;-1.514;2023-09-12T02:33:03;17.10;99.90
21104;DHT22;10710;53.398;-1.514;2023-09-12T02:35:47;17.10;99.90
21104;DHT22;10710;53.398;-1.514;2023-09-12T02:38:31;17.00;99.90
21104;DHT22;10710;53.398;-1.514;2023-09-12T02:41:16;17.10;99.90
21104;DHT22;10710;53.398;-1.514;2023-09-12T02:44:01;17.10;99.90
21104;DHT22;10710;53.398;-1.514;2023-09-12T02:46:45;17.10;99.90
21104;DHT22;10710;53.398;-1.514;2023-09-12T02:49:30;17.10;99.90
21104;DHT22;10710;53.398;-1.514;2023-09-12T02:52:14;17.20;99.90
21104;DHT22;10710;53.398;-1.514;2023-09-12T02:54:58;17.00;99.90
21104;DHT22;10710;53.398;-1.514;2023-09-12T02:57:42;17.00;99.90
21104;DHT22;10710;53.398;-1.514;2023-09-12T03:00:26;16.90;99.90
21104;DHT22;10710;53.398;-1.514;2023-09-12T03:03:10;17.00;99.90
21104;DHT22;10710;53.398;-1.514;2023-09-12T03:05:58;16.90;99.90
21104;DHT22;10710;53.398;-1.514;2023-09-12T03:08:43;16.90;99.90
21104;DHT22;10710;53.398;-1.514;2023-09-12T03:11:27;16.90;99.90
21104;DHT22;10710;53.398;-1.514;2023-09-12T03:14:11;16.90;99.90
21104;DHT22;10710;53.398;-1.514;2023-09-12T03:16:56;16.90;99.90
21104;DHT22;10710;53.398;-1.514;2023-09-12T03:19:40;16.80;99.90
21104;DHT22;10710;53.398;-1.514;2023-09-12T03:22:24;16.70;99.90
21104;DHT22;10710;53.398;-1.514;2023-09-12T03:25:08;16.60;99.90
21104;DHT22;10710;53.398;-1.514;2023-09-12T03:27:52;16.50;99.90
21104;DHT22;10710;53.398;-1.514;2023-09-12T03:30:38;16.50;99.90
21104;DHT22;10710;53.398;-1.514;2023-09-12T03:33:22;16.40;99.90
21104;DHT22;10710;53.398;-1.514;2023-09-12T03:36:07;16.40;99.90
21104;DHT22;10710;53.398;-1.514;2023-09-12T03:38:51;16.40;99.90
21104;DHT22;10710;53.398;-1.514;2023-09-12T03:41:36;16.30;99.90
21104;DHT22;10710;53.398;-1.514;2023-09-12T03:44:20;16.30;99.90
21104;DHT22;10710;53.398;-1.514;2023-09-12T03:47:04;16.30;99.90
21104;DHT22;10710;53.398;-1.514;2023-09-12T03:49:48;16.40;99.90
21104;DHT22;10710;53.398;-1.514;2023-09-12T03:52:32;16.40;99.90
21104;DHT22;10710;53.398;-1.514;2023-09-12T03:55:17;16.30;99.90
21104;DHT22;10710;53.398;-1.514;2023-09-12T03:58:01;16.30;99.90
21104;DHT22;10710;53.398;-1.514;2023-09-12T04:00:46;16.20;99.90
21104;DHT22;10710;53.398;-1.514;2023-09-12T04:03:30;16.20;99.90
21104;DHT22;10710;53.398;-1.514;2023-09-12T04:06:14;16.20;99.90
21104;DHT22;10710;53.398;-1.514;2023-09-12T04:08:58;16.10;99.90
21104;DHT22;10710;53.398;-1.514;2023-09-12T04:11:42;16.00;99.90
21104;DHT22;10710;53.398;-1.514;2023-09-12T04:14:26;15.90;99.90
21104;DHT22;10710;53.398;-1.514;2023-09-12T04:17:10;15.90;99.90
21104;DHT22;10710;53.398;-1.514;2023-09-12T04:19:54;15.90;99.90
21104;DHT22;10710;53.398;-1.514;2023-09-12T04:22:39;15.80;99.90
21104;DHT22;10710;53.398;-1.514;2023-09-12T04:25:23;15.80;99.90
21104;DHT22;10710;53.398;-1.514;2023-09-12T04:28:08;15.80;99.90
21104;DHT22;10710;53.398;-1.514;2023-09-12T04:30:52;15.80;99.90
21104;DHT22;10710;53.398;-1.514;2023-09-12T04:33:44;15.90;99.90
21104;DHT22;10710;53.398;-1.514;2023-09-12T04:36:28;15.90;99.90
21104;DHT22;10710;53.398;-1.514;2023-09-12T04:39:12;15.90;99.90
21104;DHT22;10710;53.398;-1.514;2023-09-12T04:41:57;15.90;99.90
21104;DHT22;10710;53.398;-1.514;2023-09-12T04:44:41;15.80;99.90
21104;DHT22;10710;53.398;-1.514;2023-09-12T04:47:26;15.80;99.90
21104;DHT22;10710;53.398;-1.514;2023-09-12T04:50:11;15.80;99.90
21104;DHT22;10710;53.398;-1.514;2023-09-12T04:52:55;15.80;99.90
21104;DHT22;10710;53.398;-1.514;2023-09-12T04:55:39;15.80;99.90
21104;DHT22;10710;53.398;-1.514;2023-09-12T04:58:24;15.80;99.90
21104;DHT22;10710;53.398;-1.514;2023-09-12T05:01:08;15.80;99.90
21104;DHT22;10710;53.398;-1.514;2023-09-12T05:03:53;15.80;99.90
21104;DHT22;10710;53.398;-1.514;2023-09-12T05:06:37;15.80;99.90
21104;DHT22;10710;53.398;-1.514;2023-09-12T05:09:22;15.80;99.90
21104;DHT22;10710;53.398;-1.514;2023-09-12T05:12:06;15.70;99.90
21104;DHT22;10710;53.398;-1.514;2023-09-12T05:14:50;15.60;99.90
21104;DHT22;10710;53.398;-1.514;2023-09-12T05:17:35;15.60;99.90
21104;DHT22;10710;53.398;-1.514;2023-09-12T05:20:19;15.50;99.90
21104;DHT22;10710;53.398;-1.514;2023-09-12T05:23:04;15.60;99.90
21104;DHT22;10710;53.398;-1.514;2023-09-12T05:25:48;15.60;99.90
21104;DHT22;10710;53.398;-1.514;2023-09-12T05:28:34;15.50;99.90
21104;DHT22;10710;53.398;-1.514;2023-09-12T05:31:18;15.60;99.90
21104;DHT22;10710;53.398;-1.514;2023-09-12T05:34:02;15.60;99.90
21104;DHT22;10710;53.398;-1.514;2023-09-12T05:36:46;15.60;99.90
21104;DHT22;10710;53.398;-1.514;2023-09-12T05:39:30;15.60;99.90
21104;DHT22;10710;53.398;-1.514;2023-09-12T05:42:15;15.70;99.90
21104;DHT22;10710;53.398;-1.514;2023-09-12T05:45:06;15.80;99.90
21104;DHT22;10710;53.398;-1.514;2023-09-12T05:47:51;15.80;99.90
21104;DHT22;10710;53.398;-1.514;2023-09-12T05:50:39;15.70;99.90
21104;DHT22;10710;53.398;-1.514;2023-09-12T05:53:23;15.70;99.90
21104;DHT22;10710;53.398;-1.514;2023-09-12T05:56:07;15.70;99.90
21104;DHT22;10710;53.398;-1.514;2023-09-12T05:58:51;15.60;99.90
21104;DHT22;10710;53.398;-1.514;2023-09-12T06:01:35;15.60;99.90
21104;DHT22;10710;53.398;-1.514;2023-09-12T06:04:19;15.70;99.90
21104;DHT22;10710;53.398;-1.514;2023-09-12T06:07:04;15.80;99.90
21104;DHT22;10710;53.398;-1.514;2023-09-12T06:09:48;15.70;99.90
21104;DHT22;10710;53.398;-1.514;2023-09-12T06:12:32;15.70;99.90
21104;DHT22;10710;53.398;-1.514;2023-09-12T06:15:17;15.50;99.90
21104;DHT22;10710;53.398;-1.514;2023-09-12T06:18:01;15.60;99.90
21104;DHT22;10710;53.398;-1.514;2023-09-12T06:20:45;15.50;99.90
21104;DHT22;10710;53.398;-1.514;2023-09-12T06:23:30;15.60;99.90
21104;DHT22;10710;53.398;-1.514;2023-09-12T06:26:14;15.60;99.90
21104;DHT22;10710;53.398;-1.514;2023-09-12T06:28:59;15.70;99.90
21104;DHT22;10710;53.398;-1.514;2023-09-12T06:31:43;15.70;99.90
21104;DHT22;10710;53.398;-1.514;2023-09-12T06:34:27;15.60;99.90
21104;DHT22;10710;53.398;-1.514;2023-09-12T06:37:12;15.60;99.90
21104;DHT22;10710;53.398;-1.514;2023-09-12T06:39:56;15.60;99.90
21104;DHT22;10710;53.398;-1.514;2023-09-12T06:42:41;15.50;99.90
21104;DHT22;10710;53.398;-1.514;2023-09-12T06:45:25;15.50;99.90
21104;DHT22;10710;53.398;-1.514;2023-09-12T06:48:09;15.60;99.90
21104;DHT22;10710;53.398;-1.514;2023-09-12T06:50:54;15.60;99.90
21104;DHT22;10710;53.398;-1.514;2023-09-12T06:53:38;15.60;99.90
21104;DHT22;10710;53.398;-1.514;2023-09-12T06:56:23;15.60;99.90
21104;DHT22;10710;53.398;-1.514;2023-09-12T06:59:07;15.60;99.90
21104;DHT22;10710;53.398;-1.514;2023-09-12T07:01:51;15.60;99.90
21104;DHT22;10710;53.398;-1.514;2023-09-12T07:04:35;15.50;99.90
21104;DHT22;10710;53.398;-1.514;2023-09-12T07:07:19;15.60;99.90
21104;DHT22;10710;53.398;-1.514;2023-09-12T07:10:05;15.60;99.90
21104;DHT22;10710;53.398;-1.514;2023-09-12T07:12:50;15.60;99.90
21104;DHT22;10710;53.398;-1.514;2023-09-12T07:15:36;15.70;99.90
21104;DHT22;10710;53.398;-1.514;2023-09-12T07:18:20;15.70;99.90
21104;DHT22;10710;53.398;-1.514;2023-09-12T07:21:05;15.60;99.90
21104;DHT22;10710;53.398;-1.514;2023-09-12T07:23:50;15.60;99.90
21104;DHT22;10710;53.398;-1.514;2023-09-12T07:26:34;15.70;99.90
21104;DHT22;10710;53.398;-1.514;2023-09-12T07:29:18;15.70;99.90
21104;DHT22;10710;53.398;-1.514;2023-09-12T07:32:03;15.70;99.90
21104;DHT22;10710;53.398;-1.514;2023-09-12T07:34:48;15.60;99.90
21104;DHT22;10710;53.398;-1.514;2023-09-12T07:37:32;15.60;99.90
21104;DHT22;10710;53.398;-1.514;2023-09-12T07:40:16;15.70;99.90
21104;DHT22;10710;53.398;-1.514;2023-09-12T07:43:00;15.70;99.90
21104;DHT22;10710;53.398;-1.514;2023-09-12T07:45:45;15.80;99.90
21104;DHT22;10710;53.398;-1.514;2023-09-12T07:48:29;15.70;99.90
21104;DHT22;10710;53.398;-1.514;2023-09-12T07:51:14;15.90;99.90
21104;DHT22;10710;53.398;-1.514;2023-09-12T07:53:59;15.80;99.90
21104;DHT22;10710;53.398;-1.514;2023-09-12T07:56:43;15.80;99.90
21104;DHT22;10710;53.398;-1.514;2023-09-12T07:59:27;15.80;99.90
21104;DHT22;10710;53.398;-1.514;2023-09-12T08:02:11;15.90;99.90
21104;DHT22;10710;53.398;-1.514;2023-09-12T08:04:57;16.00;99.90
21104;DHT22;10710;53.398;-1.514;2023-09-12T08:07:41;15.90;99.90
21104;DHT22;10710;53.398;-1.514;2023-09-12T08:10:25;16.00;99.90
21104;DHT22;10710;53.398;-1.514;2023-09-12T08:13:09;16.00;99.90
21104;DHT22;10710;53.398;-1.514;2023-09-12T08:15:53;16.00;99.90
21104;DHT22;10710;53.398;-1.514;2023-09-12T08:18:37;16.10;99.90
21104;DHT22;10710;53.398;-1.514;2023-09-12T08:21:22;16.00;99.90
21104;DHT22;10710;53.398;-1.514;2023-09-12T08:24:06;16.00;99.90
21104;DHT22;10710;53.398;-1.514;2023-09-12T08:26:51;16.00;99.90
21104;DHT22;10710;53.398;-1.514;2023-09-12T08:29:35;16.10;99.90
21104;DHT22;10710;53.398;-1.514;2023-09-12T08:32:19;16.00;99.90
21104;DHT22;10710;53.398;-1.514;2023-09-12T08:35:04;16.10;99.90
21104;DHT22;10710;53.398;-1.514;2023-09-12T08:37:49;16.20;99.90
21104;DHT22;10710;53.398;-1.514;2023-09-12T08:40:33;16.30;99.90
21104;DHT22;10710;53.398;-1.514;2023-09-12T08:43:20;16.20;99.90
21104;DHT22;10710;53.398;-1.514;2023-09-12T08:46:05;16.10;99.90
21104;DHT22;10710;53.398;-1.514;2023-09-12T08:48:50;16.10;99.90
21104;DHT22;10710;53.398;-1.514;2023-09-12T08:51:39;16.20;99.90
21104;DHT22;10710;53.398;-1.514;2023-09-12T08:54:24;16.30;99.90
21104;DHT22;10710;53.398;-1.514;2023-09-12T08:57:10;16.20;99.90
21104;DHT22;10710;53.398;-1.514;2023-09-12T08:59:56;16.30;99.90
21104;DHT22;10710;53.398;-1.514;2023-09-12T09:02:41;16.40;99.90
21104;DHT22;10710;53.398;-1.514;2023-09-12T09:05:27;16.50;99.90
21104;DHT22;10710;53.398;-1.514;2023-09-12T09:08:13;16.40;99.90
21104;DHT22;10710;53.398;-1.514;2023-09-12T09:11:00;16.20;99.90
21104;DHT22;10710;53.398;-1.514;2023-09-12T09:13:49;16.10;99.90
21104;DHT22;10710;53.398;-1.514;2023-09-12T09:16:33;16.10;99.90
21104;DHT22;10710;53.398;-1.514;2023-09-12T09:19:19;16.10;99.90
21104;DHT22;10710;53.398;-1.514;2023-09-12T09:22:07;16.10;99.90
21104;DHT22;10710;53.398;-1.514;2023-09-12T09:25:09;16.00;99.90
21104;DHT22;10710;53.398;-1.514;2023-09-12T09:27:54;16.10;99.90
21104;DHT22;10710;53.398;-1.514;2023-09-12T09:33:24;16.10;99.90
21104;DHT22;10710;53.398;-1.514;2023-09-12T09:36:09;16.20;99.90
21104;DHT22;10710;53.398;-1.514;2023-09-12T09:38:56;16.20;99.90
21104;DHT22;10710;53.398;-1.514;2023-09-12T09:41:40;16.30;99.90
21104;DHT22;10710;53.398;-1.514;2023-09-12T09:44:26;16.10;99.90
21104;DHT22;10710;53.398;-1.514;2023-09-12T09:47:11;16.20;99.90
21104;DHT22;10710;53.398;-1.514;2023-09-12T09:49:58;16.20;99.90
21104;DHT22;10710;53.398;-1.514;2023-09-12T09:52:43;16.10;99.90
21104;DHT22;10710;53.398;-1.514;2023-09-12T09:55:28;16.10;99.90
21104;DHT22;10710;53.398;-1.514;2023-09-12T09:58:15;16.10;99.90
21104;DHT22;10710;53.398;-1.514;2023-09-12T10:01:04;16.20;99.90
21104;DHT22;10710;53.398;-1.514;2023-09-12T10:03:49;16.20;99.90
21104;DHT22;10710;53.398;-1.514;2023-09-12T10:06:36;16.20;99.90
21104;DHT22;10710;53.398;-1.514;2023-09-12T10:09:22;16.20;99.90
21104;DHT22;10710;53.398;-1.514;2023-09-12T10:12:08;16.30;99.90
21104;DHT22;10710;53.398;-1.514;2023-09-12T10:14:52;16.20;99.90
21104;DHT22;10710;53.398;-1.514;2023-09-12T10:17:39;16.30;99.90
21104;DHT22;10710;53.398;-1.514;2023-09-12T10:20:37;16.40;99.90
21104;DHT22;10710;53.398;-1.514;2023-09-12T10:23:39;16.40;99.90
21104;DHT22;10710;53.398;-1.514;2023-09-12T10:26:26;16.40;99.90
21104;DHT22;10710;53.398;-1.514;2023-09-12T10:29:14;16.40;99.90
21104;DHT22;10710;53.398;-1.514;2023-09-12T10:32:01;16.40;99.90
21104;DHT22;10710;53.398;-1.514;2023-09-12T10:34:46;16.40;99.90
21104;DHT22;10710;53.398;-1.514;2023-09-12T10:37:35;16.30;99.90
21104;DHT22;10710;53.398;-1.514;2023-09-12T10:40:20;16.30;99.90
21104;DHT22;10710;53.398;-1.514;2023-09-12T10:43:05;16.30;99.90
21104;DHT22;10710;53.398;-1.514;2023-09-12T10:45:50;16.30;99.90
21104;DHT22;10710;53.398;-1.514;2023-09-12T10:48:36;16.20;99.90
21104;DHT22;10710;53.398;-1.514;2023-09-12T10:51:21;15.90;99.90
21104;DHT22;10710;53.398;-1.514;2023-09-12T10:54:06;15.80;99.90
21104;DHT22;10710;53.398;-1.514;2023-09-12T10:57:04;15.80;99.90
21104;DHT22;10710;53.398;-1.514;2023-09-12T11:02:48;15.90;99.90
21104;DHT22;10710;53.398;-1.514;2023-09-12T11:05:35;16.10;99.90
21104;DHT22;10710;53.398;-1.514;2023-09-12T11:08:19;16.30;99.90
21104;DHT22;10710;53.398;-1.514;2023-09-12T11:11:18;16.30;99.90
21104;DHT22;10710;53.398;-1.514;2023-09-12T11:14:06;16.40;99.90
21104;DHT22;10710;53.398;-1.514;2023-09-12T11:20:02;16.60;99.90
21104;DHT22;10710;53.398;-1.514;2023-09-12T11:23:09;16.50;99.90
21104;DHT22;10710;53.398;-1.514;2023-09-12T11:26:07;16.60;99.90
21104;DHT22;10710;53.398;-1.514;2023-09-12T11:28:55;16.50;99.90
21104;DHT22;10710;53.398;-1.514;2023-09-12T11:31:39;16.50;99.90
